Time;durP1;ratioP1;P1;durP2;ratioP2;P2;SDS_P1;SDS_P2;PMS_P1;PMS_P2;Temp;Humidity;BMP_temperature;BMP_pressure;BME280_temperature;BME280_humidity;BME280_pressure;Samples;Min_cycle;Max_cycle;Signal;HPM_P1;HPM_P2
2022/08/20 00:00:04;;;;;;;;;;;;;;;;;;5057064;28;19904;-71
2022/08/20 00:02:30;;;;;;;;;;;;;;;;;;5057122;28;19905;-70
2022/08/20 00:04:55;;;;;;;;;;;;;;;;;;5057187;28;19936;-71
2022/08/20 00:07:20;;;;;;;;;;;;;;;;;;5056967;28;20279;-71
2022/08/20 00:09:46;;;;;;;;;;;;;;;;;;5057067;28;19905;-71
2022/08/20 00:12:11;;;;;;;;;;;;;;;;;;5056869;28;19958;-71
2022/08/20 00:14:36;;;;;;;;;;;;;;;;;;5057844;28;19904;-72
2022/08/20 00:17:01;;;;;;;;;;;;;;;;;;5056811;28;19913;-73
2022/08/20 00:19:27;;;;;;;;;;;;;;;;;;5016912;28;19904;-72
2022/08/20 00:21:52;;;;;;;;;;;;;;;;;;5039315;28;19989;-72
2022/08/20 00:24:18;;;;;;;;;;;;;;;;;;5052653;28;19909;-72
2022/08/20 00:26:43;;;;;;;;;;;;;;;;;;5040140;28;19901;-70
2022/08/20 00:29:08;;;;;;;;;;;;;;;;;;5043522;28;20051;-74
2022/08/20 00:31:33;;;;;;;;;;;;;;;;;;5037559;28;19994;-72
2022/08/20 00:33:59;;;;;;;;;;;;;;;;;;5054422;28;19905;-72
2022/08/20 00:36:24;;;;;;;;;;;;;;;;;;5043869;28;19924;-74
2022/08/20 00:38:49;;;;;;;;;;;;;;;;;;5045495;28;19905;-72
2022/08/20 00:41:15;;;;;;;;;;;;;;;;;;5039889;28;19904;-73
2022/08/20 00:43:40;;;;;;;;;;;;;;;;;;5019421;28;20344;-71
2022/08/20 00:46:05;;;;;;;;;;;;;;;;;;5047496;28;19927;-72
2022/08/20 00:48:31;;;;;;;;;;;;;;;;;;5047339;28;19908;-72
2022/08/20 00:50:56;;;;;;;;;;;;;;;;;;5033909;28;19908;-72
2022/08/20 00:53:21;;;;;;;;;;;;;;;;;;5034918;28;20336;-71
2022/08/20 00:55:47;;;;;;;;;;;;;;;;;;5018427;28;19956;-74
2022/08/20 00:58:12;;;;;;;;;;;;;;;;;;5049964;28;19909;-72
2022/08/20 01:00:38;;;;;;;;;;;;;;;;;;5046834;28;19913;-73
2022/08/20 01:03:03;;;;;;;;;;;;;;;;;;5035786;28;19992;-71
2022/08/20 01:05:28;;;;;;;;;;;;;;;;;;5035801;28;20315;-72
2022/08/20 01:07:54;;;;;;;;;;;;;;;;;;5035920;28;19999;-72
2022/08/20 01:10:19;;;;;;;;;;;;;;;;;;5021961;28;19911;-70
2022/08/20 01:12:45;;;;;;;;;;;;;;;;;;5049336;28;19955;-70
2022/08/20 01:15:12;;;;;;;;;;;;;;;;;;5029427;28;19955;-72
2022/08/20 01:17:38;;;;;;;;;;;;;;;;;;5055589;28;19911;-71
2022/08/20 01:20:03;;;;;;;;;;;;;;;;;;5056115;28;19905;-72
2022/08/20 01:25:12;;;;;;;;;;;;;;;;;;5055420;28;19904;-72
2022/08/20 01:27:38;;;;;;;;;;;;;;;;;;5055511;28;20050;-73
2022/08/20 01:30:03;;;;;;;;;;;;;;;;;;5037384;28;19905;-72
2022/08/20 01:32:28;;;;;;;;;;;;;;;;;;5055549;28;20324;-72
2022/08/20 01:34:54;;;;;;;;;;;;;;;;;;5055431;28;20425;-72
2022/08/20 01:37:19;;;;;;;;;;;;;;;;;;5037730;28;19905;-72
2022/08/20 01:39:44;;;;;;;;;;;;;;;;;;5037835;28;19908;-72
2022/08/20 01:42:11;;;;;;;;;;;;;;;;;;5055291;28;19905;-72
2022/08/20 01:44:37;;;;;;;;;;;;;;;;;;5055349;28;19911;-73
2022/08/20 01:47:02;;;;;;;;;;;;;;;;;;5055485;28;19920;-73
2022/08/20 01:49:28;;;;;;;;;;;;;;;;;;5054191;28;20003;-73
2022/08/20 01:51:53;;;;;;;;;;;;;;;;;;5055085;28;19905;-72
2022/08/20 01:54:18;;;;;;;;;;;;;;;;;;5054333;28;19901;-72
2022/08/20 01:56:43;;;;;;;;;;;;;;;;;;5054913;28;19917;-73
2022/08/20 01:59:09;;;;;;;;;;;;;;;;;;5055154;28;19904;-72
2022/08/20 02:01:35;;;;;;;;;;;;;;;;;;5036123;28;20007;-73
2022/08/20 02:04:01;;;;;;;;;;;;;;;;;;5055008;28;19963;-73
2022/08/20 02:06:26;;;;;;;;;;;;;;;;;;5054885;28;19939;-73
2022/08/20 02:08:52;;;;;;;;;;;;;;;;;;5054907;28;20340;-72
2022/08/20 02:11:17;;;;;;;;;;;;;;;;;;5036865;28;19911;-72
2022/08/20 02:13:43;;;;;;;;;;;;;;;;;;5054541;28;20291;-75
2022/08/20 02:16:08;;;;;;;;;;;;;;;;;;5054476;28;19919;-73
2022/08/20 02:18:33;;;;;;;;;;;;;;;;;;5054763;28;19905;-72
2022/08/20 02:20:58;;;;;;;;;;;;;;;;;;5054430;28;19904;-71
2022/08/20 02:23:24;;;;;;;;;;;;;;;;;;5054438;28;19909;-73
2022/08/20 02:25:50;;;;;;;;;;;;;;;;;;5036735;28;19970;-73
2022/08/20 02:28:15;;;;;;;;;;;;;;;;;;5053097;28;20389;-73
2022/08/20 02:30:41;;;;;;;;;;;;;;;;;;5054892;28;19928;-73
2022/08/20 02:33:06;;;;;;;;;;;;;;;;;;5056638;28;20003;-74
2022/08/20 02:35:31;;;;;;;;;;;;;;;;;;5056449;28;19959;-73
2022/08/20 02:37:57;;;;;;;;;;;;;;;;;;5054227;28;19908;-73
2022/08/20 02:40:22;;;;;;;;;;;;;;;;;;5054210;28;19958;-73
2022/08/20 02:42:47;;;;;;;;;;;;;;;;;;5054166;28;19909;-74
2022/08/20 02:45:13;;;;;;;;;;;;;;;;;;5053992;28;20259;-74
2022/08/20 02:47:39;;;;;;;;;;;;;;;;;;5054014;28;19912;-73
2022/08/20 02:50:05;;;;;;;;;;;;;;;;;;5053993;28;20333;-73
2022/08/20 02:52:30;;;;;;;;;;;;;;;;;;5053356;28;20381;-73
2022/08/20 02:54:56;;;;;;;;;;;;;;;;;;5053695;28;19904;-73
2022/08/20 02:57:21;;;;;;;;;;;;;;;;;;5053963;28;20275;-73
2022/08/20 02:59:46;;;;;;;;;;;;;;;;;;5053865;28;20255;-73
2022/08/20 03:02:12;;;;;;;;;;;;;;;;;;5032988;28;20339;-73
2022/08/20 03:04:37;;;;;;;;;;;;;;;;;;5050108;28;19916;-74
2022/08/20 03:07:02;;;;;;;;;;;;;;;;;;5050382;28;19912;-73
2022/08/20 03:09:28;;;;;;;;;;;;;;;;;;5049859;28;19999;-73
2022/08/20 03:11:53;;;;;;;;;;;;;;;;;;5032318;28;20310;-74
2022/08/20 03:14:18;;;;;;;;;;;;;;;;;;5049494;28;19927;-74
2022/08/20 03:16:44;;;;;;;;;;;;;;;;;;5049598;28;19920;-73
2022/08/20 03:19:09;;;;;;;;;;;;;;;;;;5032511;28;20344;-75
2022/08/20 03:21:34;;;;;;;;;;;;;;;;;;5031631;28;19913;-76
2022/08/20 03:24:00;;;;;;;;;;;;;;;;;;5050185;28;19911;-74
2022/08/20 03:26:25;;;;;;;;;;;;;;;;;;5032157;28;19905;-74
2022/08/20 03:28:51;;;;;;;;;;;;;;;;;;5049964;28;20275;-74
2022/08/20 03:31:16;;;;;;;;;;;;;;;;;;5032041;28;20010;-74
2022/08/20 03:33:41;;;;;;;;;;;;;;;;;;5049917;28;19952;-74
2022/08/20 03:36:07;;;;;;;;;;;;;;;;;;5049792;28;19913;-73
2022/08/20 03:38:32;;;;;;;;;;;;;;;;;;5048537;28;19915;-74
2022/08/20 03:40:57;;;;;;;;;;;;;;;;;;5050123;28;20059;-74
2022/08/20 03:43:23;;;;;;;;;;;;;;;;;;5049538;28;19911;-75
2022/08/20 03:45:49;;;;;;;;;;;;;;;;;;5049465;28;20011;-74
2022/08/20 03:48:15;;;;;;;;;;;;;;;;;;5049238;28;19904;-74
2022/08/20 03:50:40;;;;;;;;;;;;;;;;;;5049967;28;19909;-73
2022/08/20 03:53:05;;;;;;;;;;;;;;;;;;5032145;28;19909;-73
2022/08/20 03:55:31;;;;;;;;;;;;;;;;;;5032190;28;19917;-72
2022/08/20 03:57:56;;;;;;;;;;;;;;;;;;5049281;28;19901;-71
2022/08/20 04:00:22;;;;;;;;;;;;;;;;;;5048480;28;19948;-73
2022/08/20 04:02:47;;;;;;;;;;;;;;;;;;5031457;28;19940;-76
2022/08/20 04:05:13;;;;;;;;;;;;;;;;;;5015178;28;19916;-74
2022/08/20 04:07:39;;;;;;;;;;;;;;;;;;5048652;28;19951;-74
2022/08/20 04:10:04;;;;;;;;;;;;;;;;;;5049248;28;20271;-73
2022/08/20 04:12:29;;;;;;;;;;;;;;;;;;5049359;28;19905;-75
2022/08/20 04:14:55;;;;;;;;;;;;;;;;;;5049039;28;19952;-74
2022/08/20 04:17:20;;;;;;;;;;;;;;;;;;5049137;28;19909;-74
2022/08/20 04:19:46;;;;;;;;;;;;;;;;;;5031751;28;20235;-74
2022/08/20 04:22:12;;;;;;;;;;;;;;;;;;5049349;28;20255;-78
2022/08/20 04:24:38;;;;;;;;;;;;;;;;;;5049441;28;20670;-74
2022/08/20 04:27:04;;;;;;;;;;;;;;;;;;5052832;28;19905;-74
2022/08/20 04:29:29;;;;;;;;;;;;;;;;;;5051190;28;19905;-75
2022/08/20 04:31:54;;;;;;;;;;;;;;;;;;5052545;28;20003;-75
2022/08/20 04:34:20;;;;;;;;;;;;;;;;;;5034655;28;19911;-75
2022/08/20 04:36:48;;;;;;;;;;;;;;;;;;5052858;28;20363;-73
2022/08/20 04:39:13;;;;;;;;;;;;;;;;;;5052813;28;19958;-74
2022/08/20 04:41:39;;;;;;;;;;;;;;;;;;5051570;28;19908;-77
2022/08/20 04:44:04;;;;;;;;;;;;;;;;;;5052565;28;19962;-76
2022/08/20 04:46:31;;;;;;;;;;;;;;;;;;5049666;28;19909;-76
2022/08/20 04:48:56;;;;;;;;;;;;;;;;;;5051098;28;19911;-75
2022/08/20 04:51:22;;;;;;;;;;;;;;;;;;5051547;28;20246;-74
2022/08/20 04:53:47;;;;;;;;;;;;;;;;;;5050619;28;20373;-74
2022/08/20 04:56:13;;;;;;;;;;;;;;;;;;5050605;28;19916;-74
2022/08/20 04:58:38;;;;;;;;;;;;;;;;;;5050251;28;19932;-78
2022/08/20 05:01:03;;;;;;;;;;;;;;;;;;5049718;28;19932;-80
2022/08/20 05:03:29;;;;;;;;;;;;;;;;;;5050896;28;19908;-76
2022/08/20 05:05:55;;;;;;;;;;;;;;;;;;5015830;28;19921;-74
2022/08/20 05:08:21;;;;;;;;;;;;;;;;;;5031948;28;19904;-75
2022/08/20 05:10:47;;;;;;;;;;;;;;;;;;5049010;28;19991;-76
2022/08/20 05:13:12;;;;;;;;;;;;;;;;;;5050109;28;20020;-74
2022/08/20 05:15:37;;;;;;;;;;;;;;;;;;5050735;28;20023;-74
2022/08/20 05:18:04;;;;;;;;;;;;;;;;;;5052141;28;20021;-73
2022/08/20 05:20:30;;;;;;;;;;;;;;;;;;5050103;28;19908;-73
2022/08/20 05:22:55;;;;;;;;;;;;;;;;;;5033728;28;19905;-74
2022/08/20 05:25:20;;;;;;;;;;;;;;;;;;5052594;28;20130;-78
2022/08/20 05:27:46;;;;;;;;;;;;;;;;;;5051375;28;20267;-73
2022/08/20 05:30:11;;;;;;;;;;;;;;;;;;5052083;28;19904;-74
2022/08/20 05:35:46;;;;;;;;;;;;;;;;;;5050200;28;20038;-73
2022/08/20 05:41:21;;;;;;;;;;;;;;;;;;5050916;28;19962;-73
2022/08/20 05:43:46;;;;;;;;;;;;;;;;;;5032939;28;19909;-73
2022/08/20 05:49:20;;;;;;;;;;;;;;;;;;5051131;28;20438;-74
2022/08/20 05:51:46;;;;;;;;;;;;;;;;;;5050164;28;20023;-79
2022/08/20 05:54:11;;;;;;;;;;;;;;;;;;5050669;28;19904;-74
2022/08/20 05:56:37;;;;;;;;;;;;;;;;;;5051082;28;20014;-79
2022/08/20 05:59:05;;;;;;;;;;;;;;;;;;5051826;28;20256;-74
2022/08/20 06:01:30;;;;;;;;;;;;;;;;;;5050267;28;19905;-72
2022/08/20 06:06:40;;;;;;;;;;;;;;;;;;5051230;28;20241;-73
2022/08/20 06:09:05;;;;;;;;;;;;;;;;;;5051014;28;19999;-74
2022/08/20 06:11:30;;;;;;;;;;;;;;;;;;5049618;28;19911;-75
2022/08/20 06:13:56;;;;;;;;;;;;;;;;;;5050037;28;19995;-74
2022/08/20 06:16:21;;;;;;;;;;;;;;;;;;5050488;28;20267;-75
2022/08/20 06:18:47;;;;;;;;;;;;;;;;;;5050121;28;19904;-72
2022/08/20 06:21:12;;;;;;;;;;;;;;;;;;5052792;28;19905;-73
2022/08/20 06:23:37;;;;;;;;;;;;;;;;;;5051062;28;19909;-79
2022/08/20 06:26:05;;;;;;;;;;;;;;;;;;5051564;28;20399;-72
2022/08/20 06:28:30;;;;;;;;;;;;;;;;;;5050958;28;19948;-74
2022/08/20 06:30:56;;;;;;;;;;;;;;;;;;5050735;28;19947;-74
2022/08/20 06:33:21;;;;;;;;;;;;;;;;;;5032869;28;20854;-72
2022/08/20 06:35:47;;;;;;;;;;;;;;;;;;5050330;28;19919;-72
2022/08/20 06:38:13;;;;;;;;;;;;;;;;;;5049459;28;19915;-71
2022/08/20 06:40:39;;;;;;;;;;;;;;;;;;5050413;28;19908;-73
2022/08/20 06:43:05;;;;;;;;;;;;;;;;;;5049680;28;20307;-75
2022/08/20 06:45:30;;;;;;;;;;;;;;;;;;5031698;28;19912;-74
2022/08/20 06:47:56;;;;;;;;;;;;;;;;;;5049615;28;19983;-72
2022/08/20 06:50:21;;;;;;;;;;;;;;;;;;5050315;28;19913;-74
2022/08/20 06:52:47;;;;;;;;;;;;;;;;;;5048678;28;19900;-74
2022/08/20 06:55:12;;;;;;;;;;;;;;;;;;5050461;28;19904;-73
2022/08/20 06:57:37;;;;;;;;;;;;;;;;;;5050592;28;19908;-72
2022/08/20 07:00:03;;;;;;;;;;;;;;;;;;5049333;28;19909;-72
2022/08/20 07:02:28;;;;;;;;;;;;;;;;;;5041235;28;19916;-74
2022/08/20 07:04:54;;;;;;;;;;;;;;;;;;5017410;28;19951;-72
2022/08/20 07:07:19;;;;;;;;;;;;;;;;;;5029887;28;19986;-77
2022/08/20 07:09:45;;;;;;;;;;;;;;;;;;5040771;28;19909;-73
2022/08/20 07:12:11;;;;;;;;;;;;;;;;;;5029802;28;19908;-71
2022/08/20 07:14:36;;;;;;;;;;;;;;;;;;5030134;28;19905;-73
2022/08/20 07:17:01;;;;;;;;;;;;;;;;;;5029778;28;20007;-74
2022/08/20 07:19:26;;;;;;;;;;;;;;;;;;5030457;28;19959;-79
2022/08/20 07:21:52;;;;;;;;;;;;;;;;;;5029823;28;20375;-74
2022/08/20 07:24:18;;;;;;;;;;;;;;;;;;5040759;28;19905;-72
2022/08/20 07:26:43;;;;;;;;;;;;;;;;;;5030156;28;19975;-71
2022/08/20 07:29:08;;;;;;;;;;;;;;;;;;5012152;28;19901;-72
2022/08/20 07:34:18;;;;;;;;;;;;;;;;;;5029870;28;19950;-74
2022/08/20 07:36:43;;;;;;;;;;;;;;;;;;5029932;28;19964;-74
2022/08/20 07:39:08;;;;;;;;;;;;;;;;;;5029890;28;19959;-71
2022/08/20 07:41:34;;;;;;;;;;;;;;;;;;5012349;28;20015;-72
2022/08/20 07:43:59;;;;;;;;;;;;;;;;;;5032763;28;19911;-73
2022/08/20 07:46:24;;;;;;;;;;;;;;;;;;5042895;28;19904;-75
2022/08/20 07:48:50;;;;;;;;;;;;;;;;;;5034009;28;19905;-73
2022/08/20 07:51:16;;;;;;;;;;;;;;;;;;5030029;28;20031;-72
2022/08/20 07:53:41;;;;;;;;;;;;;;;;;;5034289;28;19920;-74
2022/08/20 07:56:07;;;;;;;;;;;;;;;;;;5040057;28;19912;-71
2022/08/20 07:58:34;;;;;;;;;;;;;;;;;;5041517;28;19901;-74
2022/08/20 08:01:00;;;;;;;;;;;;;;;;;;5014482;28;20016;-72
2022/08/20 08:03:27;;;;;;;;;;;;;;;;;;5033464;28;19912;-73
2022/08/20 08:05:53;;;;;;;;;;;;;;;;;;5033528;28;20237;-73
2022/08/20 08:08:18;;;;;;;;;;;;;;;;;;5033203;28;19916;-71
2022/08/20 08:10:44;;;;;;;;;;;;;;;;;;5033446;28;19909;-71
2022/08/20 08:13:27;;;;;;;;;;;;;;;;;;5033448;28;19909;-72
2022/08/20 08:15:53;;;;;;;;;;;;;;;;;;5033815;28;20004;-71
2022/08/20 08:18:20;;;;;;;;;;;;;;;;;;5049454;28;20050;-70
2022/08/20 08:20:45;;;;;;;;;;;;;;;;;;5053164;28;19916;-72
2022/08/20 08:23:11;;;;;;;;;;;;;;;;;;5015752;28;20267;-71
2022/08/20 08:25:36;;;;;;;;;;;;;;;;;;5052926;28;20013;-71
2022/08/20 08:28:02;;;;;;;;;;;;;;;;;;5052836;28;20343;-72
2022/08/20 08:30:28;;;;;;;;;;;;;;;;;;5050004;28;19916;-71
2022/08/20 08:35:37;;;;;;;;;;;;;;;;;;5027300;28;20007;-75
2022/08/20 08:38:02;;;;;;;;;;;;;;;;;;5040860;28;19995;-76
2022/08/20 08:40:28;;;;;;;;;;;;;;;;;;5052373;28;19908;-75
2022/08/20 08:42:56;;;;;;;;;;;;;;;;;;5052464;28;20430;-75
2022/08/20 08:45:22;;;;;;;;;;;;;;;;;;5052393;28;19915;-75
2022/08/20 08:47:47;;;;;;;;;;;;;;;;;;5052471;28;20007;-77
2022/08/20 08:50:12;;;;;;;;;;;;;;;;;;5044502;28;20003;-76
2022/08/20 08:52:39;;;;;;;;;;;;;;;;;;5032886;28;20356;-76
2022/08/20 08:55:05;;;;;;;;;;;;;;;;;;5014958;28;19944;-76
2022/08/20 08:57:30;;;;;;;;;;;;;;;;;;5032296;28;19936;-75
2022/08/20 08:59:55;;;;;;;;;;;;;;;;;;5014943;28;19912;-76
2022/08/20 09:02:21;;;;;;;;;;;;;;;;;;5032033;28;19905;-77
2022/08/20 09:04:46;;;;;;;;;;;;;;;;;;5032293;28;19920;-77
2022/08/20 09:07:12;;;;;;;;;;;;;;;;;;5032615;28;20372;-74
2022/08/20 09:09:37;;;;;;;;;;;;;;;;;;5038547;28;19971;-76
2022/08/20 09:12:02;;;;;;;;;;;;;;;;;;5032724;28;19905;-75
2022/08/20 09:14:28;;;;;;;;;;;;;;;;;;5034509;28;19905;-78
2022/08/20 09:16:53;;;;;;;;;;;;;;;;;;5038537;28;19917;-76
2022/08/20 09:19:18;;;;;;;;;;;;;;;;;;5049263;28;19905;-75
2022/08/20 09:21:44;;;;;;;;;;;;;;;;;;5043253;28;19928;-75
2022/08/20 09:24:09;;;;;;;;;;;;;;;;;;5040111;28;20347;-76
2022/08/20 09:26:34;;;;;;;;;;;;;;;;;;5033472;28;19905;-75
2022/08/20 09:28:59;;;;;;;;;;;;;;;;;;5031474;28;19912;-75
2022/08/20 09:31:25;;;;;;;;;;;;;;;;;;5032070;28;20055;-75
2022/08/20 09:33:50;;;;;;;;;;;;;;;;;;5014178;28;19909;-75
2022/08/20 09:36:15;;;;;;;;;;;;;;;;;;5031281;28;19920;-74
2022/08/20 09:38:41;;;;;;;;;;;;;;;;;;5040479;28;20259;-74
2022/08/20 09:41:06;;;;;;;;;;;;;;;;;;5019947;28;20372;-73
2022/08/20 09:43:31;;;;;;;;;;;;;;;;;;5039482;28;19909;-74
2022/08/20 09:45:57;;;;;;;;;;;;;;;;;;5034527;28;19960;-74
2022/08/20 09:48:22;;;;;;;;;;;;;;;;;;5050417;28;20314;-73
2022/08/20 09:50:47;;;;;;;;;;;;;;;;;;5033484;28;19908;-73
2022/08/20 09:53:13;;;;;;;;;;;;;;;;;;5033484;28;19943;-75
2022/08/20 09:55:38;;;;;;;;;;;;;;;;;;5043943;28;19916;-75
2022/08/20 09:58:03;;;;;;;;;;;;;;;;;;5030829;28;19940;-73
2022/08/20 10:00:29;;;;;;;;;;;;;;;;;;5030979;28;20408;-77
2022/08/20 10:02:54;;;;;;;;;;;;;;;;;;5033275;28;19954;-75
2022/08/20 10:05:19;;;;;;;;;;;;;;;;;;5048823;28;19963;-75
2022/08/20 10:07:45;;;;;;;;;;;;;;;;;;5047710;28;20343;-75
2022/08/20 10:10:10;;;;;;;;;;;;;;;;;;5016489;28;19916;-73
2022/08/20 10:12:35;;;;;;;;;;;;;;;;;;5030462;28;19912;-75
2022/08/20 10:15:01;;;;;;;;;;;;;;;;;;5049104;28;19913;-75
2022/08/20 10:17:26;;;;;;;;;;;;;;;;;;5050747;28;19909;-74
2022/08/20 10:19:51;;;;;;;;;;;;;;;;;;5051100;28;19905;-75
2022/08/20 10:22:18;;;;;;;;;;;;;;;;;;5048580;28;19916;-75
2022/08/20 10:24:43;;;;;;;;;;;;;;;;;;5037581;28;20358;-75
2022/08/20 10:27:08;;;;;;;;;;;;;;;;;;5042483;28;20327;-74
2022/08/20 10:29:33;;;;;;;;;;;;;;;;;;5038712;28;19905;-74
2022/08/20 10:31:59;;;;;;;;;;;;;;;;;;5042845;28;19909;-74
2022/08/20 10:34:24;;;;;;;;;;;;;;;;;;5034204;28;19909;-73
2022/08/20 10:36:50;;;;;;;;;;;;;;;;;;5023583;28;19966;-74
2022/08/20 10:39:15;;;;;;;;;;;;;;;;;;5024803;28;19917;-73
2022/08/20 10:41:40;;;;;;;;;;;;;;;;;;5041877;28;20338;-74
2022/08/20 10:44:06;;;;;;;;;;;;;;;;;;5046506;28;20367;-74
2022/08/20 10:46:31;;;;;;;;;;;;;;;;;;5047917;28;19955;-73
2022/08/20 10:48:57;;;;;;;;;;;;;;;;;;5025540;28;19908;-75
2022/08/20 10:51:22;;;;;;;;;;;;;;;;;;5039698;28;19962;-78
2022/08/20 10:53:47;;;;;;;;;;;;;;;;;;5051421;28;19908;-74
2022/08/20 10:56:12;;;;;;;;;;;;;;;;;;5056529;28;19999;-73
2022/08/20 10:58:38;;;;;;;;;;;;;;;;;;5055641;28;20310;-76
2022/08/20 11:01:03;;;;;;;;;;;;;;;;;;5049375;28;19916;-76
2022/08/20 11:03:28;;;;;;;;;;;;;;;;;;5047440;28;20324;-76
2022/08/20 11:05:54;;;;;;;;;;;;;;;;;;5046201;28;19912;-76
2022/08/20 11:08:19;;;;;;;;;;;;;;;;;;5047491;28;19959;-76
2022/08/20 11:10:44;;;;;;;;;;;;;;;;;;5045296;28;19915;-73
2022/08/20 11:13:11;;;;;;;;;;;;;;;;;;5047708;28;20378;-75
2022/08/20 11:15:36;;;;;;;;;;;;;;;;;;5028934;28;19924;-74
2022/08/20 11:18:02;;;;;;;;;;;;;;;;;;5036563;28;19909;-74
2022/08/20 11:20:27;;;;;;;;;;;;;;;;;;5035255;28;19912;-74
2022/08/20 11:22:52;;;;;;;;;;;;;;;;;;5030032;28;19908;-74
2022/08/20 11:25:18;;;;;;;;;;;;;;;;;;5047111;28;20046;-75
2022/08/20 11:27:43;;;;;;;;;;;;;;;;;;5047323;28;20349;-74
2022/08/20 11:30:09;;;;;;;;;;;;;;;;;;5012396;28;20006;-75
2022/08/20 11:32:34;;;;;;;;;;;;;;;;;;5039128;28;20371;-74
2022/08/20 11:34:59;;;;;;;;;;;;;;;;;;5031195;28;20010;-74
2022/08/20 11:37:25;;;;;;;;;;;;;;;;;;5040355;28;19913;-74
2022/08/20 11:39:50;;;;;;;;;;;;;;;;;;5052444;28;19909;-75
2022/08/20 11:42:15;;;;;;;;;;;;;;;;;;5051699;28;19911;-75
2022/08/20 11:44:40;;;;;;;;;;;;;;;;;;5051500;28;20302;-76
2022/08/20 11:47:06;;;;;;;;;;;;;;;;;;5051957;28;19905;-76
2022/08/20 11:49:31;;;;;;;;;;;;;;;;;;5033985;28;19905;-72
2022/08/20 11:51:56;;;;;;;;;;;;;;;;;;5051384;28;19916;-74
2022/08/20 11:54:21;;;;;;;;;;;;;;;;;;5051780;28;20559;-75
2022/08/20 11:56:48;;;;;;;;;;;;;;;;;;5033924;28;19928;-75
2022/08/20 11:59:13;;;;;;;;;;;;;;;;;;5051312;28;19905;-75
2022/08/20 12:01:38;;;;;;;;;;;;;;;;;;5051323;28;20271;-75
2022/08/20 12:04:04;;;;;;;;;;;;;;;;;;5033657;28;19909;-75
2022/08/20 12:06:30;;;;;;;;;;;;;;;;;;5051297;28;19923;-76
2022/08/20 12:08:55;;;;;;;;;;;;;;;;;;5051277;28;19904;-74
2022/08/20 12:11:20;;;;;;;;;;;;;;;;;;5051331;28;19912;-77
2022/08/20 12:13:45;;;;;;;;;;;;;;;;;;5050883;28;19919;-74
2022/08/20 12:16:11;;;;;;;;;;;;;;;;;;5050311;28;20022;-75
2022/08/20 12:18:36;;;;;;;;;;;;;;;;;;5051530;28;19905;-75
2022/08/20 12:21:01;;;;;;;;;;;;;;;;;;5051583;28;19912;-75
2022/08/20 12:23:27;;;;;;;;;;;;;;;;;;5044863;28;19958;-74
2022/08/20 12:25:52;;;;;;;;;;;;;;;;;;5040026;28;20011;-74
2022/08/20 12:28:17;;;;;;;;;;;;;;;;;;5022469;28;19909;-74
2022/08/20 12:30:43;;;;;;;;;;;;;;;;;;5030771;28;20003;-74
2022/08/20 12:33:08;;;;;;;;;;;;;;;;;;5051020;28;19920;-74
2022/08/20 12:35:33;;;;;;;;;;;;;;;;;;5047058;28;19913;-74
2022/08/20 12:37:59;;;;;;;;;;;;;;;;;;5034838;28;19962;-74
2022/08/20 12:40:24;;;;;;;;;;;;;;;;;;5036095;28;19919;-75
2022/08/20 12:42:49;;;;;;;;;;;;;;;;;;5048923;28;19904;-74
2022/08/20 12:45:14;;;;;;;;;;;;;;;;;;5049280;28;19916;-74
2022/08/20 12:47:40;;;;;;;;;;;;;;;;;;5048966;28;19904;-75
2022/08/20 12:50:05;;;;;;;;;;;;;;;;;;5049465;28;19913;-75
2022/08/20 12:52:30;;;;;;;;;;;;;;;;;;5039764;28;19904;-74
2022/08/20 12:54:56;;;;;;;;;;;;;;;;;;5050889;28;19909;-75
2022/08/20 12:57:21;;;;;;;;;;;;;;;;;;5048269;28;19919;-75
2022/08/20 12:59:46;;;;;;;;;;;;;;;;;;5048408;28;19908;-76
2022/08/20 13:02:11;;;;;;;;;;;;;;;;;;5030137;28;20008;-74
2022/08/20 13:04:37;;;;;;;;;;;;;;;;;;5041631;28;19911;-73
2022/08/20 13:07:02;;;;;;;;;;;;;;;;;;5037009;28;20015;-73
2022/08/20 13:09:27;;;;;;;;;;;;;;;;;;5029088;28;20249;-74
2022/08/20 13:11:53;;;;;;;;;;;;;;;;;;5028582;28;20256;-74
2022/08/20 13:14:18;;;;;;;;;;;;;;;;;;5029283;28;19913;-75
2022/08/20 13:16:43;;;;;;;;;;;;;;;;;;5034035;28;19913;-74
2022/08/20 13:19:08;;;;;;;;;;;;;;;;;;5043620;28;19908;-74
2022/08/20 13:21:35;;;;;;;;;;;;;;;;;;5050263;28;20264;-74
2022/08/20 13:24:00;;;;;;;;;;;;;;;;;;5041538;28;19905;-74
2022/08/20 13:26:26;;;;;;;;;;;;;;;;;;5030554;28;20394;-73
2022/08/20 13:28:51;;;;;;;;;;;;;;;;;;5031755;28;19905;-74
2022/08/20 13:31:16;;;;;;;;;;;;;;;;;;5048807;28;19904;-74
2022/08/20 13:33:41;;;;;;;;;;;;;;;;;;5049405;28;19909;-74
2022/08/20 13:36:07;;;;;;;;;;;;;;;;;;5050283;28;19912;-74
2022/08/20 13:38:32;;;;;;;;;;;;;;;;;;5049221;28;19962;-75
2022/08/20 13:40:57;;;;;;;;;;;;;;;;;;5047425;28;19970;-75
2022/08/20 13:43:23;;;;;;;;;;;;;;;;;;5047933;28;20413;-73
2022/08/20 13:45:48;;;;;;;;;;;;;;;;;;5049499;28;19912;-73
2022/08/20 13:48:13;;;;;;;;;;;;;;;;;;5049026;28;19916;-75
2022/08/20 13:50:39;;;;;;;;;;;;;;;;;;5048929;28;19916;-75
2022/08/20 13:53:04;;;;;;;;;;;;;;;;;;5048244;28;20306;-75
2022/08/20 13:55:29;;;;;;;;;;;;;;;;;;5050243;28;19955;-74
2022/08/20 13:57:55;;;;;;;;;;;;;;;;;;5048131;28;20271;-74
2022/08/20 14:00:20;;;;;;;;;;;;;;;;;;5049023;28;19904;-75
2022/08/20 14:02:45;;;;;;;;;;;;;;;;;;5049024;28;19999;-74
2022/08/20 14:05:11;;;;;;;;;;;;;;;;;;5056106;28;20361;-74
2022/08/20 14:07:36;;;;;;;;;;;;;;;;;;5070939;28;19950;-74
2022/08/20 14:10:01;;;;;;;;;;;;;;;;;;5071282;28;19904;-73
2022/08/20 14:12:27;;;;;;;;;;;;;;;;;;5070577;28;19904;-74
2022/08/20 14:14:52;;;;;;;;;;;;;;;;;;5071181;28;19908;-74
2022/08/20 14:17:17;;;;;;;;;;;;;;;;;;5070616;28;19915;-74
2022/08/20 14:19:43;;;;;;;;;;;;;;;;;;5071433;28;20305;-75
2022/08/20 14:22:08;;;;;;;;;;;;;;;;;;5053136;28;19958;-74
2022/08/20 14:24:34;;;;;;;;;;;;;;;;;;5070672;28;19916;-74
2022/08/20 14:27:00;;;;;;;;;;;;;;;;;;5052699;28;19912;-74
2022/08/20 14:29:25;;;;;;;;;;;;;;;;;;5070567;28;19904;-74
2022/08/20 14:31:50;;;;;;;;;;;;;;;;;;5070967;28;19972;-75
2022/08/20 14:34:16;;;;;;;;;;;;;;;;;;5052358;28;20263;-73
2022/08/20 14:36:41;;;;;;;;;;;;;;;;;;5070582;28;19923;-75
2022/08/20 14:39:06;;;;;;;;;;;;;;;;;;5070665;28;20353;-74
2022/08/20 14:41:32;;;;;;;;;;;;;;;;;;5070727;28;19911;-74
2022/08/20 14:43:57;;;;;;;;;;;;;;;;;;5070764;28;19904;-74
2022/08/20 14:46:22;;;;;;;;;;;;;;;;;;5070465;28;19971;-74
2022/08/20 14:48:47;;;;;;;;;;;;;;;;;;5070357;28;20494;-74
2022/08/20 14:51:13;;;;;;;;;;;;;;;;;;5070107;28;19981;-75
2022/08/20 14:53:38;;;;;;;;;;;;;;;;;;5070410;28;19934;-73
2022/08/20 14:56:03;;;;;;;;;;;;;;;;;;5070136;28;19983;-73
2022/08/20 14:58:29;;;;;;;;;;;;;;;;;;5070476;28;19916;-73
2022/08/20 15:00:54;;;;;;;;;;;;;;;;;;5070277;28;19927;-74
2022/08/20 15:03:22;;;;;;;;;;;;;;;;;;5069614;28;19908;-73
2022/08/20 15:05:49;;;;;;;;;;;;;;;;;;5070414;28;20007;-74
2022/08/20 15:08:14;;;;;;;;;;;;;;;;;;5069783;28;19991;-74
2022/08/20 15:10:40;;;;;;;;;;;;;;;;;;5052398;28;19940;-74
2022/08/20 15:13:05;;;;;;;;;;;;;;;;;;5052281;28;19904;-75
2022/08/20 15:15:30;;;;;;;;;;;;;;;;;;5051924;28;20445;-74
2022/08/20 15:17:55;;;;;;;;;;;;;;;;;;5069596;28;20347;-74
2022/08/20 15:20:21;;;;;;;;;;;;;;;;;;5069803;28;19908;-74
2022/08/20 15:22:46;;;;;;;;;;;;;;;;;;5052348;28;19909;-73
2022/08/20 15:25:11;;;;;;;;;;;;;;;;;;5070063;28;19997;-74
2022/08/20 15:27:37;;;;;;;;;;;;;;;;;;5069859;28;20009;-74
2022/08/20 15:30:02;;;;;;;;;;;;;;;;;;5073998;28;19900;-75
2022/08/20 15:32:28;;;;;;;;;;;;;;;;;;5075863;28;19904;-73
2022/08/20 15:34:53;;;;;;;;;;;;;;;;;;5072089;28;19904;-73
2022/08/20 15:37:18;;;;;;;;;;;;;;;;;;5069833;28;20343;-74
2022/08/20 15:39:44;;;;;;;;;;;;;;;;;;5051686;28;19904;-74
2022/08/20 15:42:09;;;;;;;;;;;;;;;;;;5069475;28;19911;-75
2022/08/20 15:44:34;;;;;;;;;;;;;;;;;;5052125;28;20327;-74
2022/08/20 15:46:59;;;;;;;;;;;;;;;;;;5035247;28;19905;-74
2022/08/20 15:49:25;;;;;;;;;;;;;;;;;;5069477;28;19991;-73
2022/08/20 15:51:50;;;;;;;;;;;;;;;;;;5069758;28;19938;-73
2022/08/20 15:54:15;;;;;;;;;;;;;;;;;;5069469;28;20271;-74
2022/08/20 15:56:41;;;;;;;;;;;;;;;;;;5069495;28;19913;-74
2022/08/20 15:59:06;;;;;;;;;;;;;;;;;;5070560;28;19950;-73
2022/08/20 16:01:32;;;;;;;;;;;;;;;;;;5069497;28;19911;-75
2022/08/20 16:03:57;;;;;;;;;;;;;;;;;;5069419;28;19913;-73
2022/08/20 16:06:22;;;;;;;;;;;;;;;;;;5051359;28;19913;-73
2022/08/20 16:08:48;;;;;;;;;;;;;;;;;;5069760;28;19908;-73
2022/08/20 16:11:13;;;;;;;;;;;;;;;;;;5069751;28;19905;-72
2022/08/20 16:13:39;;;;;;;;;;;;;;;;;;5069731;28;19916;-74
2022/08/20 16:16:04;;;;;;;;;;;;;;;;;;5051563;28;19908;-74
2022/08/20 16:18:29;;;;;;;;;;;;;;;;;;5068959;28;20136;-74
2022/08/20 16:20:55;;;;;;;;;;;;;;;;;;5052397;28;19908;-75
2022/08/20 16:23:20;;;;;;;;;;;;;;;;;;5073290;28;19904;-74
2022/08/20 16:25:45;;;;;;;;;;;;;;;;;;5054955;28;19911;-72
2022/08/20 16:28:10;;;;;;;;;;;;;;;;;;5073188;28;20413;-71
2022/08/20 16:30:36;;;;;;;;;;;;;;;;;;5072989;28;19910;-74
2022/08/20 16:33:01;;;;;;;;;;;;;;;;;;5072872;28;20000;-74
2022/08/20 16:35:26;;;;;;;;;;;;;;;;;;5072518;28;19955;-74
2022/08/20 16:37:52;;;;;;;;;;;;;;;;;;5073003;28;19992;-73
2022/08/20 16:40:17;;;;;;;;;;;;;;;;;;5073030;28;19996;-73
2022/08/20 16:42:43;;;;;;;;;;;;;;;;;;5072539;28;20358;-74
2022/08/20 16:45:08;;;;;;;;;;;;;;;;;;5072832;28;19966;-74
2022/08/20 16:47:33;;;;;;;;;;;;;;;;;;5054947;28;19955;-74
2022/08/20 16:49:59;;;;;;;;;;;;;;;;;;5072527;28;19914;-75
2022/08/20 16:52:24;;;;;;;;;;;;;;;;;;5072798;28;20002;-73